Time;durP1;ratioP1;P1;durP2;ratioP2;P2;SDS_P1;SDS_P2;PMS_P1;PMS_P2;Temp;Humidity;BMP_temperature;BMP_pressure;BME280_temperature;BME280_humidity;BME280_pressure;Samples;Min_cycle;Max_cycle;Signal;HPM_P1;HPM_P2
2022/05/23 00:00:13;;;;;;;;;;;24.70;44.80;;;;;;5072416;28;20413;-63
2022/05/23 00:02:39;;;;;;;;;;;24.70;44.80;;;;;;5073168;28;19909;-64
2022/05/23 00:05:04;;;;;;;;;;;24.70;44.90;;;;;;5074617;28;19967;-63
2022/05/23 00:07:32;;;;;;;;;;;24.70;44.90;;;;;;5058083;28;19909;-63
2022/05/23 00:09:58;;;;;;;;;;;24.70;44.80;;;;;;5075147;28;19931;-63
2022/05/23 00:12:23;;;;;;;;;;;24.70;44.80;;;;;;5076077;28;19908;-63
2022/05/23 00:14:50;;;;;;;;;;;24.70;44.90;;;;;;5075927;28;19909;-63
2022/05/23 00:17:15;;;;;;;;;;;24.70;44.90;;;;;;5075044;28;20356;-63
2022/05/23 00:19:41;;;;;;;;;;;24.70;44.90;;;;;;5074642;28;19920;-63
2022/05/23 00:22:06;;;;;;;;;;;24.70;44.90;;;;;;5075892;28;20384;-63
2022/05/23 00:24:32;;;;;;;;;;;24.70;44.90;;;;;;5074518;28;20386;-64
2022/05/23 00:26:57;;;;;;;;;;;24.70;44.90;;;;;;5075761;28;19915;-63
2022/05/23 00:29:23;;;;;;;;;;;24.70;44.90;;;;;;5074446;28;20417;-63
2022/05/23 00:37:18;;;;;;;;;;;24.60;44.90;;;;;;5074641;28;19919;-63
2022/05/23 00:39:43;;;;;;;;;;;24.60;45.00;;;;;;5075692;28;19908;-63
2022/05/23 00:44:53;;;;;;;;;;;24.60;45.00;;;;;;5074458;28;19973;-63
2022/05/23 00:47:20;;;;;;;;;;;24.60;45.00;;;;;;5074226;28;19912;-63
2022/05/23 00:49:45;;;;;;;;;;;24.60;45.00;;;;;;5074134;28;19923;-63
2022/05/23 00:52:13;;;;;;;;;;;24.60;45.00;;;;;;5075268;28;19909;-63
2022/05/23 00:54:43;;;;;;;;;;;24.60;45.00;;;;;;5075361;28;19908;-63
2022/05/23 00:57:10;;;;;;;;;;;24.60;45.00;;;;;;5057219;28;19916;-63
2022/05/23 00:59:35;;;;;;;;;;;24.50;44.90;;;;;;5075235;28;19908;-63
2022/05/23 01:02:01;;;;;;;;;;;24.60;45.70;;;;;;5075107;28;19915;-63
2022/05/23 01:04:28;;;;;;;;;;;24.50;44.90;;;;;;5073662;28;19920;-63
2022/05/23 01:06:54;;;;;;;;;;;24.60;45.00;;;;;;5074151;28;19955;-63
2022/05/23 01:09:22;;;;;;;;;;;24.50;44.90;;;;;;5075245;28;19912;-63
2022/05/23 01:11:48;;;;;;;;;;;24.50;45.00;;;;;;5073682;28;19908;-63
2022/05/23 01:14:13;;;;;;;;;;;24.50;45.10;;;;;;5074300;28;19914;-63
2022/05/23 01:16:39;;;;;;;;;;;24.50;45.00;;;;;;5073619;28;19995;-63
2022/05/23 01:19:05;;;;;;;;;;;24.40;44.90;;;;;;5073860;28;19909;-63
2022/05/23 01:21:37;;;;;;;;;;;24.50;45.10;;;;;;5074823;28;20297;-63
2022/05/23 01:24:06;;;;;;;;;;;24.50;45.10;;;;;;5073501;28;20375;-63
2022/05/23 01:26:32;;;;;;;;;;;24.50;45.10;;;;;;5073412;28;19915;-64
2022/05/23 01:28:57;;;;;;;;;;;24.50;45.10;;;;;;5074669;28;19908;-64
2022/05/23 01:31:23;;;;;;;;;;;24.50;45.10;;;;;;5073416;28;20039;-63
2022/05/23 01:33:48;;;;;;;;;;;24.50;45.10;;;;;;5073274;28;19947;-63
2022/05/23 01:36:14;;;;;;;;;;;24.40;45.00;;;;;;5074325;28;19912;-63
2022/05/23 01:38:39;;;;;;;;;;;24.40;45.10;;;;;;5074729;28;19908;-63
2022/05/23 01:41:06;;;;;;;;;;;24.40;45.80;;;;;;5074284;28;19909;-63
2022/05/23 01:43:31;;;;;;;;;;;24.40;45.20;;;;;;5074354;28;19908;-63
2022/05/23 01:45:58;;;;;;;;;;;24.40;45.30;;;;;;5073147;28;20382;-63
2022/05/23 01:48:23;;;;;;;;;;;24.30;45.10;;;;;;5074244;28;20368;-63
2022/05/23 01:50:49;;;;;;;;;;;24.40;45.20;;;;;;5074245;28;19915;-63
2022/05/23 01:53:14;;;;;;;;;;;24.40;45.20;;;;;;5074215;28;19908;-63
2022/05/23 01:55:40;;;;;;;;;;;24.30;45.10;;;;;;5074116;28;19958;-63
2022/05/23 01:58:05;;;;;;;;;;;24.30;45.20;;;;;;5074103;28;19947;-63
2022/05/23 02:03:15;;;;;;;;;;;24.30;45.20;;;;;;5072788;28;19916;-63
2022/05/23 02:05:41;;;;;;;;;;;24.30;45.20;;;;;;5073967;28;19917;-63
2022/05/23 02:08:06;;;;;;;;;;;24.30;45.30;;;;;;5072737;28;20272;-63
2022/05/23 02:10:32;;;;;;;;;;;24.30;45.30;;;;;;5073736;28;19912;-63
2022/05/23 02:13:00;;;;;;;;;;;24.30;45.30;;;;;;5073743;28;20003;-63
2022/05/23 02:15:28;;;;;;;;;;;24.30;45.40;;;;;;5073845;28;20364;-63
2022/05/23 02:17:54;;;;;;;;;;;24.30;45.40;;;;;;5073440;28;19954;-63
2022/05/23 02:20:19;;;;;;;;;;;24.20;45.30;;;;;;5073637;28;20012;-63
2022/05/23 02:22:45;;;;;;;;;;;24.20;45.30;;;;;;5073593;28;19909;-63
2022/05/23 02:25:10;;;;;;;;;;;24.20;45.40;;;;;;5073515;28;19915;-63
2022/05/23 02:27:36;;;;;;;;;;;24.20;45.40;;;;;;5072533;28;19908;-63
2022/05/23 02:30:02;;;;;;;;;;;24.20;45.40;;;;;;5073447;28;19931;-63
2022/05/23 02:32:27;;;;;;;;;;;24.20;45.40;;;;;;5073484;28;19962;-63
2022/05/23 02:34:53;;;;;;;;;;;24.20;45.40;;;;;;5073394;28;19908;-63
2022/05/23 02:37:18;;;;;;;;;;;24.10;45.40;;;;;;5073342;28;19912;-63
2022/05/23 02:39:44;;;;;;;;;;;24.10;45.50;;;;;;5073582;28;19912;-63
2022/05/23 02:42:09;;;;;;;;;;;24.10;45.40;;;;;;5073233;28;19920;-63
2022/05/23 02:44:35;;;;;;;;;;;24.10;45.40;;;;;;5072178;28;20010;-63
2022/05/23 02:47:00;;;;;;;;;;;24.10;45.50;;;;;;5073227;28;19916;-64
2022/05/23 02:49:26;;;;;;;;;;;24.10;45.40;;;;;;5071839;28;20360;-63
2022/05/23 02:51:52;;;;;;;;;;;24.10;45.40;;;;;;5073122;28;19916;-63
2022/05/23 02:54:17;;;;;;;;;;;24.10;45.50;;;;;;5073180;28;19978;-63
2022/05/23 02:56:43;;;;;;;;;;;24.10;45.50;;;;;;5073077;28;20307;-63
2022/05/23 02:59:08;;;;;;;;;;;24.10;45.50;;;;;;5072995;28;19995;-63
2022/05/23 03:03:01;;;;;;;;;;;24.10;45.60;;;;;;5073043;28;19909;-63
2022/05/23 03:04:19;;;;;;;;;;;24.10;45.60;;;;;;5072734;28;20015;-63
2022/05/23 03:06:45;;;;;;;;;;;24.00;45.50;;;;;;5073062;28;19944;-63
2022/05/23 03:09:11;;;;;;;;;;;24.00;45.50;;;;;;5072080;28;19937;-63
2022/05/23 03:11:37;;;;;;;;;;;24.00;45.50;;;;;;5071738;28;19962;-63
2022/05/23 03:14:02;;;;;;;;;;;24.00;45.50;;;;;;5073007;28;19912;-63
2022/05/23 03:16:27;;;;;;;;;;;24.10;45.60;;;;;;5072836;28;19909;-63
2022/05/23 03:18:53;;;;;;;;;;;24.00;45.60;;;;;;5071747;28;19908;-63
2022/05/23 03:26:59;;;;;;;;;;;24.00;45.70;;;;;;5072844;28;19915;-63
2022/05/23 03:29:24;;;;;;;;;;;24.00;45.70;;;;;;5072706;28;20359;-63
2022/05/23 03:31:50;;;;;;;;;;;24.00;45.70;;;;;;5072697;28;19909;-63
2022/05/23 03:34:16;;;;;;;;;;;24.00;45.70;;;;;;5071522;28;19947;-63
2022/05/23 03:36:41;;;;;;;;;;;24.00;45.70;;;;;;5072579;28;19916;-63
2022/05/23 03:39:07;;;;;;;;;;;24.00;45.70;;;;;;5075691;28;20018;-63
2022/05/23 03:41:32;;;;;;;;;;;23.90;45.70;;;;;;5075171;28;19913;-63
2022/05/23 03:43:58;;;;;;;;;;;23.90;45.70;;;;;;5076382;28;20397;-63
2022/05/23 03:46:24;;;;;;;;;;;23.90;45.60;;;;;;5076346;28;19908;-63
2022/05/23 03:48:49;;;;;;;;;;;23.90;45.60;;;;;;5075145;28;20292;-63
2022/05/23 03:51:15;;;;;;;;;;;23.90;45.70;;;;;;5076351;28;19915;-63
2022/05/23 03:53:40;;;;;;;;;;;23.90;45.70;;;;;;5076225;28;19916;-63
2022/05/23 03:56:06;;;;;;;;;;;23.90;45.70;;;;;;5076179;28;19916;-63
2022/05/23 03:58:31;;;;;;;;;;;23.90;45.60;;;;;;5076083;28;20228;-63
2022/05/23 04:01:04;;;;;;;;;;;23.90;45.60;;;;;;5076145;28;20273;-63
2022/05/23 04:03:29;;;;;;;;;;;23.90;45.60;;;;;;5075939;28;19982;-63
2022/05/23 04:05:54;;;;;;;;;;;23.90;45.70;;;;;;5076071;28;19908;-63
2022/05/23 04:08:20;;;;;;;;;;;23.90;45.70;;;;;;5076287;28;20363;-63
2022/05/23 04:10:45;;;;;;;;;;;23.90;45.70;;;;;;5074745;28;20364;-63
2022/05/23 04:13:11;;;;;;;;;;;23.90;45.60;;;;;;5075885;28;19909;-63
2022/05/23 04:15:36;;;;;;;;;;;23.90;45.70;;;;;;5076020;28;20364;-63
2022/05/23 04:18:02;;;;;;;;;;;23.90;45.70;;;;;;5075724;28;19982;-63
2022/05/23 04:20:27;;;;;;;;;;;23.80;45.60;;;;;;5075798;28;19909;-63
2022/05/23 04:22:53;;;;;;;;;;;23.80;45.60;;;;;;5075751;28;20394;-63
2022/05/23 04:25:18;;;;;;;;;;;23.80;45.70;;;;;;5074630;28;19931;-63
2022/05/23 04:27:44;;;;;;;;;;;23.80;45.80;;;;;;5075921;28;19913;-63
2022/05/23 04:30:09;;;;;;;;;;;23.80;45.70;;;;;;5075424;28;20002;-63
2022/05/23 04:35:20;;;;;;;;;;;23.80;45.70;;;;;;5075644;28;19915;-63
2022/05/23 04:37:48;;;;;;;;;;;23.80;45.70;;;;;;5075837;28;20288;-63
2022/05/23 04:40:14;;;;;;;;;;;23.80;45.70;;;;;;5075414;28;19912;-63
2022/05/23 04:42:39;;;;;;;;;;;23.80;45.60;;;;;;5075636;28;19916;-63
2022/05/23 04:45:05;;;;;;;;;;;23.80;45.70;;;;;;5074193;28;19909;-63
2022/05/23 04:50:16;;;;;;;;;;;23.80;45.70;;;;;;5073803;28;20215;-63
2022/05/23 04:52:42;;;;;;;;;;;23.80;45.70;;;;;;5075003;28;20015;-63
2022/05/23 04:55:08;;;;;;;;;;;23.80;45.60;;;;;;5074242;28;19999;-63
2022/05/23 04:57:34;;;;;;;;;;;23.80;45.60;;;;;;5075030;28;19916;-63
2022/05/23 04:59:59;;;;;;;;;;;23.90;45.60;;;;;;5073783;28;19909;-63
2022/05/23 05:02:25;;;;;;;;;;;23.90;45.60;;;;;;5075218;28;19995;-63
2022/05/23 05:04:50;;;;;;;;;;;23.90;45.50;;;;;;5074756;28;20067;-63
2022/05/23 05:07:16;;;;;;;;;;;23.90;45.60;;;;;;5075057;28;19919;-63
2022/05/23 05:09:41;;;;;;;;;;;23.80;45.60;;;;;;5053816;28;20371;-63
2022/05/23 05:12:07;;;;;;;;;;;23.80;45.50;;;;;;5054881;28;20003;-63
2022/05/23 05:14:34;;;;;;;;;;;23.80;45.60;;;;;;5054894;28;19913;-63
2022/05/23 05:17:00;;;;;;;;;;;23.80;45.50;;;;;;5054667;28;19913;-63
2022/05/23 05:19:26;;;;;;;;;;;23.80;45.50;;;;;;5054724;28;19916;-63
2022/05/23 05:21:52;;;;;;;;;;;23.80;45.60;;;;;;5069798;28;19909;-63
2022/05/23 05:24:17;;;;;;;;;;;23.80;45.60;;;;;;5054523;28;20291;-63
2022/05/23 05:26:43;;;;;;;;;;;23.90;46.30;;;;;;5054652;28;20376;-63
2022/05/23 05:29:08;;;;;;;;;;;23.90;45.50;;;;;;5054474;28;19909;-63
2022/05/23 05:31:36;;;;;;;;;;;23.80;45.40;;;;;;5054377;28;19917;-63
2022/05/23 05:34:04;;;;;;;;;;;23.80;45.40;;;;;;5069851;28;19909;-63
2022/05/23 05:36:31;;;;;;;;;;;23.80;45.50;;;;;;5069704;28;19912;-63
2022/05/23 05:38:57;;;;;;;;;;;23.80;45.50;;;;;;5065882;28;19909;-63
2022/05/23 05:41:24;;;;;;;;;;;23.80;45.50;;;;;;5072651;28;19951;-63
2022/05/23 05:43:51;;;;;;;;;;;23.80;45.50;;;;;;5073911;28;19909;-63
2022/05/23 05:46:17;;;;;;;;;;;23.80;45.40;;;;;;5074136;28;19909;-63
2022/05/23 05:48:43;;;;;;;;;;;23.80;45.40;;;;;;5072902;28;20364;-63
2022/05/23 05:51:09;;;;;;;;;;;23.80;45.40;;;;;;5072689;28;19908;-63
2022/05/23 05:53:34;;;;;;;;;;;23.90;45.40;;;;;;5073713;28;20318;-63
2022/05/23 05:56:00;;;;;;;;;;;23.90;45.90;;;;;;5073834;28;19916;-63
2022/05/23 05:58:26;;;;;;;;;;;23.90;45.20;;;;;;5072573;28;19970;-63
2022/05/23 06:00:51;;;;;;;;;;;23.90;45.20;;;;;;5072523;28;19909;-63
2022/05/23 06:03:17;;;;;;;;;;;23.90;45.20;;;;;;5073413;28;19909;-63
2022/05/23 06:11:23;;;;;;;;;;;23.90;45.10;;;;;;5073519;28;19955;-63
2022/05/23 06:13:49;;;;;;;;;;;23.90;45.20;;;;;;5073454;28;20422;-63
2022/05/23 06:16:14;;;;;;;;;;;23.90;45.10;;;;;;5072305;28;19908;-63
2022/05/23 06:18:40;;;;;;;;;;;24.00;45.10;;;;;;5073446;28;19919;-63
2022/05/23 06:21:09;;;;;;;;;;;23.90;45.00;;;;;;5073423;28;20007;-63
2022/05/23 06:23:41;;;;;;;;;;;24.00;44.90;;;;;;5073336;28;19912;-63
2022/05/23 06:26:07;;;;;;;;;;;23.90;44.90;;;;;;5073269;28;20008;-63
2022/05/23 06:28:34;;;;;;;;;;;23.90;45.00;;;;;;5072119;28;19959;-63
2022/05/23 06:30:59;;;;;;;;;;;23.90;45.00;;;;;;5073489;28;20318;-63
2022/05/23 06:33:25;;;;;;;;;;;24.00;45.10;;;;;;5072549;28;19909;-64
2022/05/23 06:35:51;;;;;;;;;;;24.00;44.80;;;;;;5055227;28;19959;-64
2022/05/23 06:38:16;;;;;;;;;;;23.90;44.80;;;;;;5073405;28;19912;-64
2022/05/23 06:40:42;;;;;;;;;;;23.90;44.80;;;;;;5073135;28;19952;-64
2022/05/23 06:43:07;;;;;;;;;;;23.90;44.80;;;;;;5072932;28;19908;-63
2022/05/23 06:45:33;;;;;;;;;;;24.00;44.70;;;;;;5072999;28;19913;-63
2022/05/23 06:47:58;;;;;;;;;;;24.00;44.70;;;;;;5072836;28;19909;-63
2022/05/23 06:50:24;;;;;;;;;;;24.00;44.70;;;;;;5073001;28;19912;-63
2022/05/23 06:52:49;;;;;;;;;;;23.90;44.60;;;;;;5072933;28;19916;-63
2022/05/23 06:55:15;;;;;;;;;;;24.00;44.60;;;;;;5072909;28;19943;-63
2022/05/23 06:57:40;;;;;;;;;;;24.00;44.50;;;;;;5073305;28;19916;-63
2022/05/23 07:00:09;;;;;;;;;;;24.00;44.60;;;;;;5072892;28;19908;-63
2022/05/23 07:02:35;;;;;;;;;;;23.90;44.60;;;;;;5073285;28;19916;-63
2022/05/23 07:13:13;;;;;;;;;;;23.90;44.50;;;;;;5072201;28;20452;-63
2022/05/23 07:15:46;;;;;;;;;;;23.90;44.60;;;;;;5072917;28;19947;-63
2022/05/23 07:18:12;;;;;;;;;;;23.90;44.60;;;;;;5055773;28;19923;-63
2022/05/23 07:20:38;;;;;;;;;;;23.90;44.50;;;;;;5072824;28;19909;-63
2022/05/23 07:23:03;;;;;;;;;;;23.90;44.60;;;;;;5072635;28;19913;-63
2022/05/23 07:25:29;;;;;;;;;;;23.80;44.60;;;;;;5072674;28;19935;-63
2022/05/23 07:27:54;;;;;;;;;;;23.80;44.70;;;;;;5072605;28;19908;-63
2022/05/23 07:30:21;;;;;;;;;;;23.80;44.70;;;;;;5072626;28;19953;-63
2022/05/23 07:32:46;;;;;;;;;;;23.80;44.80;;;;;;5072733;28;19916;-63
2022/05/23 07:35:12;;;;;;;;;;;23.80;44.50;;;;;;5072524;28;19912;-63
2022/05/23 07:37:37;;;;;;;;;;;23.80;44.60;;;;;;5073096;28;20336;-63
2022/05/23 07:40:03;;;;;;;;;;;23.80;44.50;;;;;;5072498;28;20291;-64
2022/05/23 07:42:29;;;;;;;;;;;23.80;44.40;;;;;;5072938;28;19908;-64
2022/05/23 07:44:55;;;;;;;;;;;23.90;44.60;;;;;;5072554;28;19909;-64
2022/05/23 07:47:20;;;;;;;;;;;23.90;44.50;;;;;;5072589;28;20038;-64
2022/05/23 07:49:47;;;;;;;;;;;23.90;44.70;;;;;;5072337;28;20003;-63
2022/05/23 07:52:12;;;;;;;;;;;23.90;44.60;;;;;;5072553;28;19912;-63
2022/05/23 08:02:50;;;;;;;;;;;23.90;44.70;;;;;;5072388;28;19998;-63
2022/05/23 08:05:16;;;;;;;;;;;23.90;44.50;;;;;;5072068;28;19924;-63
2022/05/23 08:07:41;;;;;;;;;;;24.00;44.50;;;;;;5072641;28;20295;-63
2022/05/23 08:10:07;;;;;;;;;;;24.00;44.40;;;;;;5072294;28;19908;-63
2022/05/23 08:12:33;;;;;;;;;;;24.00;44.30;;;;;;5072407;28;19916;-63
2022/05/23 08:14:59;;;;;;;;;;;24.00;44.30;;;;;;5072233;28;19916;-63
2022/05/23 08:17:24;;;;;;;;;;;24.00;44.30;;;;;;5072482;28;19913;-63
2022/05/23 08:19:49;;;;;;;;;;;24.00;44.30;;;;;;5072292;28;20008;-63
2022/05/23 08:22:15;;;;;;;;;;;24.10;44.50;;;;;;5072305;28;19916;-63
2022/05/23 08:24:41;;;;;;;;;;;24.10;44.40;;;;;;5072533;28;19915;-63
2022/05/23 08:27:06;;;;;;;;;;;24.10;44.50;;;;;;5075797;28;19909;-63
2022/05/23 08:29:32;;;;;;;;;;;24.10;45.30;;;;;;5075781;28;19909;-63
2022/05/23 08:31:58;;;;;;;;;;;24.00;44.60;;;;;;5075811;28;20054;-63
2022/05/23 08:34:24;;;;;;;;;;;24.00;44.50;;;;;;5075443;28;20461;-63
2022/05/23 08:36:51;;;;;;;;;;;24.10;44.70;;;;;;5075439;28;19919;-63
2022/05/23 08:39:16;;;;;;;;;;;24.10;44.60;;;;;;5075863;28;19915;-63
2022/05/23 08:41:44;;;;;;;;;;;24.10;44.80;;;;;;5075428;28;20378;-63
2022/05/23 08:44:28;;;;;;;;;;;24.10;44.80;;;;;;5075395;28;19908;-63
2022/05/23 08:47:05;;;;;;;;;;;24.00;44.90;;;;;;5075316;28;19912;-63
2022/05/23 08:49:45;;;;;;;;;;;24.00;45.00;;;;;;5075404;28;19999;-63
2022/05/23 08:52:11;;;;;;;;;;;24.00;45.00;;;;;;5075035;28;20283;-63
2022/05/23 08:54:45;;;;;;;;;;;24.00;44.90;;;;;;5075146;28;19955;-63
2022/05/23 08:57:15;;;;;;;;;;;24.00;44.80;;;;;;5074129;28;20359;-64
2022/05/23 08:59:43;;;;;;;;;;;24.10;45.00;;;;;;5073739;28;20344;-64
2022/05/23 09:02:12;;;;;;;;;;;24.00;45.10;;;;;;5074862;28;19909;-63
2022/05/23 09:04:42;;;;;;;;;;;24.00;45.20;;;;;;5073501;28;19926;-63
2022/05/23 09:07:09;;;;;;;;;;;24.00;45.10;;;;;;5073714;28;19966;-63
2022/05/23 09:09:36;;;;;;;;;;;24.00;45.10;;;;;;5073989;28;19999;-63
2022/05/23 09:12:11;;;;;;;;;;;24.00;45.10;;;;;;5073807;28;20007;-63
2022/05/23 09:14:37;;;;;;;;;;;24.00;45.10;;;;;;5074959;28;19952;-63
2022/05/23 09:17:02;;;;;;;;;;;24.00;45.10;;;;;;5074948;28;20344;-63
2022/05/23 09:19:38;;;;;;;;;;;24.00;45.10;;;;;;5075163;28;19908;-63
2022/05/23 09:22:14;;;;;;;;;;;24.10;45.30;;;;;;5073488;28;20335;-63
2022/05/23 09:24:47;;;;;;;;;;;24.00;45.20;;;;;;5073369;28;20011;-63
2022/05/23 09:27:25;;;;;;;;;;;24.00;45.10;;;;;;5074732;28;19919;-63
2022/05/23 09:29:54;;;;;;;;;;;24.00;45.10;;;;;;5074588;28;19955;-63
2022/05/23 09:32:23;;;;;;;;;;;24.00;45.40;;;;;;5074593;28;20321;-63
2022/05/23 09:34:55;;;;;;;;;;;24.00;45.20;;;;;;5072995;28;19908;-63
2022/05/23 09:37:49;;;;;;;;;;;24.00;45.10;;;;;;5073110;28;19912;-63
2022/05/23 09:40:27;;;;;;;;;;;24.00;44.80;;;;;;5056371;28;19909;-63
2022/05/23 09:48:34;;;;;;;;;;;24.10;44.80;;;;;;5073255;28;19918;-63
2022/05/23 09:51:04;;;;;;;;;;;24.00;44.90;;;;;;5074346;28;20322;-63
2022/05/23 09:53:31;;;;;;;;;;;24.10;45.00;;;;;;5074183;28;19923;-63
2022/05/23 09:56:16;;;;;;;;;;;24.10;44.80;;;;;;5074202;28;20332;-63
2022/05/23 09:58:41;;;;;;;;;;;24.10;45.00;;;;;;5073905;28;19912;-63
2022/05/23 10:01:10;;;;;;;;;;;24.10;45.00;;;;;;5072566;28;20007;-63
2022/05/23 10:03:37;;;;;;;;;;;24.10;45.00;;;;;;5073650;28;19924;-63
2022/05/23 10:06:02;;;;;;;;;;;24.10;45.00;;;;;;5073816;28;19909;-63
2022/05/23 10:08:27;;;;;;;;;;;24.10;44.70;;;;;;5074065;28;20394;-63
2022/05/23 10:11:04;;;;;;;;;;;24.10;44.60;;;;;;5073671;28;20333;-63
2022/05/23 10:13:36;;;;;;;;;;;24.10;44.50;;;;;;5073869;28;19962;-63
2022/05/23 10:16:11;;;;;;;;;;;24.10;44.80;;;;;;5072654;28;19909;-63
2022/05/23 10:18:44;;;;;;;;;;;24.10;44.60;;;;;;5055724;28;19939;-64
2022/05/23 10:21:26;;;;;;;;;;;24.10;45.00;;;;;;5073711;28;19909;-64
2022/05/23 10:24:03;;;;;;;;;;;24.10;45.10;;;;;;5072406;28;20342;-64
2022/05/23 10:26:30;;;;;;;;;;;24.20;44.50;;;;;;5073551;28;19915;-63
2022/05/23 10:29:01;;;;;;;;;;;24.20;44.40;;;;;;5073589;28;19990;-64
2022/05/23 10:31:29;;;;;;;;;;;24.20;44.30;;;;;;5073604;28;19909;-63
2022/05/23 10:34:20;;;;;;;;;;;24.20;44.20;;;;;;5072009;28;19912;-63
2022/05/23 10:36:46;;;;;;;;;;;24.20;44.40;;;;;;5069033;28;19983;-64
2022/05/23 10:42:13;;;;;;;;;;;24.30;44.50;;;;;;5072257;28;19997;-63
2022/05/23 10:44:42;;;;;;;;;;;24.30;44.50;;;;;;5073188;28;19908;-63
2022/05/23 10:47:23;;;;;;;;;;;24.30;44.40;;;;;;5072386;28;19993;-63
2022/05/23 10:49:51;;;;;;;;;;;24.30;44.50;;;;;;5073401;28;19908;-64
2022/05/23 10:52:44;;;;;;;;;;;24.30;44.00;;;;;;5073064;28;20387;-63
2022/05/23 10:55:13;;;;;;;;;;;24.30;44.20;;;;;;5042405;28;19909;-63
2022/05/23 10:57:59;;;;;;;;;;;24.40;44.30;;;;;;5071609;28;19919;-63
2022/05/23 11:00:28;;;;;;;;;;;24.40;44.70;;;;;;5073033;28;19919;-63
2022/05/23 11:02:56;;;;;;;;;;;24.40;44.60;;;;;;5071639;28;19962;-63
2022/05/23 11:05:32;;;;;;;;;;;24.40;44.40;;;;;;5071460;28;19925;-63
2022/05/23 11:08:05;;;;;;;;;;;24.40;44.30;;;;;;5071850;28;19920;-63
2022/05/23 11:10:49;;;;;;;;;;;24.40;44.30;;;;;;5071564;28;19915;-63
2022/05/23 11:13:27;;;;;;;;;;;24.40;44.20;;;;;;5072991;28;20359;-63
2022/05/23 11:15:56;;;;;;;;;;;24.50;44.20;;;;;;5072704;28;19949;-64
2022/05/23 11:18:27;;;;;;;;;;;24.50;44.00;;;;;;5072833;28;19912;-63
2022/05/23 11:20:56;;;;;;;;;;;24.50;44.10;;;;;;5072869;28;19908;-63
2022/05/23 11:23:22;;;;;;;;;;;24.50;43.70;;;;;;5071938;28;19982;-63
2022/05/23 11:25:52;;;;;;;;;;;24.50;43.70;;;;;;5072999;28;19966;-63
2022/05/23 11:34:11;;;;;;;;;;;24.60;43.90;;;;;;5049103;28;19915;-63
2022/05/23 11:36:57;;;;;;;;;;;24.60;43.80;;;;;;5071448;28;19954;-64
2022/05/23 11:39:41;;;;;;;;;;;24.60;43.70;;;;;;5072275;28;20352;-63
2022/05/23 11:42:10;;;;;;;;;;;24.60;43.70;;;;;;5072701;28;19913;-63
2022/05/23 11:44:42;;;;;;;;;;;24.70;43.90;;;;;;5071256;28;19909;-63
2022/05/23 11:47:26;;;;;;;;;;;24.70;43.90;;;;;;5072651;28;19908;-63
2022/05/23 11:49:58;;;;;;;;;;;24.70;43.70;;;;;;5071534;28;19909;-63
2022/05/23 11:52:24;;;;;;;;;;;24.70;43.90;;;;;;5072508;28;19916;-63
2022/05/23 11:54:50;;;;;;;;;;;24.70;43.80;;;;;;5072856;28;20309;-63
2022/05/23 11:57:16;;;;;;;;;;;24.70;43.80;;;;;;5070905;28;20007;-63
2022/05/23 11:59:45;;;;;;;;;;;24.70;43.60;;;;;;5073175;28;19931;-63
2022/05/23 12:02:11;;;;;;;;;;;24.80;43.70;;;;;;5076136;28;20429;-63
2022/05/23 12:04:48;;;;;;;;;;;24.80;44.10;;;;;;5075994;28;20003;-63
2022/05/23 12:07:33;;;;;;;;;;;24.80;43.70;;;;;;5075978;28;20244;-64
2022/05/23 12:10:17;;;;;;;;;;;24.80;43.60;;;;;;5075765;28;20356;-63
2022/05/23 12:12:43;;;;;;;;;;;24.80;43.70;;;;;;5075924;28;19913;-63
2022/05/23 12:15:09;;;;;;;;;;;24.80;43.70;;;;;;5075999;28;19908;-63
2022/05/23 12:17:35;;;;;;;;;;;24.80;43.40;;;;;;5076197;28;19912;-63
2022/05/23 12:20:06;;;;;;;;;;;24.90;43.50;;;;;;5075764;28;20241;-63
2022/05/23 12:22:35;;;;;;;;;;;24.90;43.60;;;;;;5076231;28;20348;-63
2022/05/23 12:25:21;;;;;;;;;;;24.90;43.80;;;;;;5074635;28;19909;-63
2022/05/23 12:27:49;;;;;;;;;;;24.90;43.70;;;;;;5075185;28;19909;-64
2022/05/23 12:30:18;;;;;;;;;;;24.90;43.80;;;;;;5075753;28;19947;-64
2022/05/23 12:32:45;;;;;;;;;;;24.90;43.50;;;;;;5076078;28;19912;-64
2022/05/23 12:35:13;;;;;;;;;;;24.90;43.50;;;;;;5074578;28;20023;-64
2022/05/23 12:37:40;;;;;;;;;;;24.90;43.80;;;;;;5074650;28;19947;-63
2022/05/23 12:40:22;;;;;;;;;;;24.90;43.80;;;;;;5074161;28;19916;-63
2022/05/23 12:42:54;;;;;;;;;;;25.00;43.50;;;;;;5074206;28;19908;-63
2022/05/23 12:45:29;;;;;;;;;;;25.00;43.50;;;;;;5075592;28;20298;-63
2022/05/23 12:48:04;;;;;;;;;;;25.00;43.40;;;;;;5075369;28;19919;-63
2022/05/23 12:50:35;;;;;;;;;;;25.10;43.30;;;;;;5074239;28;19954;-64
2022/05/23 12:53:19;;;;;;;;;;;25.10;43.50;;;;;;5074126;28;19908;-64
2022/05/23 12:56:05;;;;;;;;;;;25.10;43.70;;;;;;5075634;28;19935;-64
2022/05/23 12:58:49;;;;;;;;;;;25.10;43.50;;;;;;5074416;28;20034;-64
2022/05/23 13:01:16;;;;;;;;;;;25.10;43.60;;;;;;5074178;28;19917;-64
2022/05/23 13:03:42;;;;;;;;;;;25.10;43.60;;;;;;5075207;28;20387;-63
2022/05/23 13:06:11;;;;;;;;;;;25.20;43.60;;;;;;5075198;28;19912;-63
2022/05/23 13:08:40;;;;;;;;;;;25.20;43.70;;;;;;5074092;28;20320;-64
2022/05/23 13:11:07;;;;;;;;;;;25.20;43.70;;;;;;5073982;28;19932;-63
2022/05/23 13:13:34;;;;;;;;;;;25.20;43.40;;;;;;5073898;28;19952;-63
2022/05/23 13:16:13;;;;;;;;;;;25.20;43.20;;;;;;5074920;28;19958;-63
2022/05/23 13:24:13;;;;;;;;;;;25.30;43.10;;;;;;5074795;28;19965;-63
2022/05/23 13:26:38;;;;;;;;;;;25.30;43.00;;;;;;5074780;28;20403;-64
2022/05/23 13:29:07;;;;;;;;;;;25.30;43.30;;;;;;5073569;28;19919;-64
2022/05/23 13:31:35;;;;;;;;;;;25.30;43.20;;;;;;5073575;28;19908;-63
2022/05/23 13:34:01;;;;;;;;;;;25.30;43.30;;;;;;5074501;28;19952;-63
2022/05/23 13:36:27;;;;;;;;;;;25.30;43.40;;;;;;5074700;28;19908;-63
2022/05/23 13:39:03;;;;;;;;;;;25.30;43.60;;;;;;5073339;28;19936;-62
2022/05/23 13:41:29;;;;;;;;;;;25.30;43.20;;;;;;5074572;28;20360;-63
2022/05/23 13:43:54;;;;;;;;;;;25.40;43.10;;;;;;5074311;28;19999;-63
2022/05/23 13:46:23;;;;;;;;;;;25.40;42.90;;;;;;5074442;28;20031;-63
2022/05/23 13:48:49;;;;;;;;;;;25.40;43.00;;;;;;5074404;28;20413;-62
2022/05/23 13:51:18;;;;;;;;;;;25.40;43.30;;;;;;5072800;28;20273;-63
2022/05/23 13:53:45;;;;;;;;;;;25.40;42.90;;;;;;5074252;28;20371;-63
2022/05/23 13:56:11;;;;;;;;;;;25.40;43.00;;;;;;5074146;28;20291;-63
2022/05/23 13:58:40;;;;;;;;;;;25.40;43.30;;;;;;5072628;28;19958;-63
2022/05/23 14:01:41;;;;;;;;;;;25.40;43.20;;;;;;5073724;28;19909;-62
2022/05/23 14:04:07;;;;;;;;;;;25.40;43.00;;;;;;4992271;28;20345;-62
2022/05/23 14:06:34;;;;;;;;;;;25.50;43.40;;;;;;5052689;28;19908;-62
2022/05/23 14:09:00;;;;;;;;;;;25.50;43.40;;;;;;5072962;28;19915;-64
2022/05/23 14:11:28;;;;;;;;;;;25.50;43.20;;;;;;5072750;28;19908;-63
2022/05/23 14:13:57;;;;;;;;;;;25.50;43.50;;;;;;5072611;28;19913;-63
2022/05/23 14:16:22;;;;;;;;;;;25.50;43.40;;;;;;5072881;28;20052;-63
2022/05/23 14:19:01;;;;;;;;;;;25.50;43.20;;;;;;5073709;28;20007;-63
2022/05/23 14:21:33;;;;;;;;;;;25.50;43.00;;;;;;5073973;28;20318;-63
2022/05/23 14:23:59;;;;;;;;;;;25.50;42.90;;;;;;5073437;28;19948;-63
2022/05/23 14:26:24;;;;;;;;;;;25.50;42.90;;;;;;5073419;28;19931;-63
2022/05/23 14:28:54;;;;;;;;;;;25.60;43.20;;;;;;5073676;28;19908;-63
2022/05/23 14:31:27;;;;;;;;;;;25.60;42.90;;;;;;5073556;28;19916;-63
2022/05/23 14:33:55;;;;;;;;;;;25.60;43.00;;;;;;5072350;28;20482;-63
2022/05/23 14:36:24;;;;;;;;;;;25.60;42.80;;;;;;5073450;28;19909;-63
2022/05/23 14:38:51;;;;;;;;;;;25.60;42.50;;;;;;5072503;28;19920;-63
2022/05/23 14:41:26;;;;;;;;;;;25.60;42.60;;;;;;5073260;28;19909;-63
2022/05/23 14:44:10;;;;;;;;;;;25.60;42.80;;;;;;5073765;28;20279;-63
2022/05/23 14:46:39;;;;;;;;;;;25.60;42.60;;;;;;5073365;28;19908;-63
2022/05/23 14:49:16;;;;;;;;;;;25.60;42.60;;;;;;5073117;28;19913;-63
2022/05/23 14:51:43;;;;;;;;;;;25.60;42.70;;;;;;5073264;28;20400;-63
2022/05/23 14:57:03;;;;;;;;;;;25.70;42.60;;;;;;5079963;28;20279;-63
2022/05/23 15:02:32;;;;;;;;;;;25.70;42.70;;;;;;5072299;28;19915;-63
2022/05/23 15:05:03;;;;;;;;;;;25.60;42.60;;;;;;5072816;28;20010;-63
2022/05/23 15:07:29;;;;;;;;;;;25.60;42.50;;;;;;5080040;28;19984;-63
2022/05/23 15:09:55;;;;;;;;;;;25.60;42.80;;;;;;5073399;28;19909;-63
2022/05/23 15:12:21;;;;;;;;;;;25.70;42.70;;;;;;5073161;28;20322;-63
2022/05/23 15:14:48;;;;;;;;;;;25.70;42.70;;;;;;5073061;28;19908;-63
2022/05/23 15:17:14;;;;;;;;;;;25.60;42.90;;;;;;5073093;28;20280;-63
2022/05/23 15:19:39;;;;;;;;;;;25.60;43.00;;;;;;5072073;28;19908;-63
2022/05/23 15:22:05;;;;;;;;;;;25.60;43.00;;;;;;5071779;28;19908;-63
2022/05/23 15:24:31;;;;;;;;;;;25.60;42.90;;;;;;5071725;28;19913;-63
2022/05/23 15:26:56;;;;;;;;;;;25.70;43.00;;;;;;5072867;28;20336;-64
2022/05/23 15:29:23;;;;;;;;;;;25.70;42.90;;;;;;5071655;28;19978;-64
2022/05/23 15:31:51;;;;;;;;;;;25.70;43.00;;;;;;5071475;28;19915;-64